sensor_id;sensor_type;location;lat;lon;timestamp;pressure;altitude;pressure_sealevel;temperature;humidity
9839;BME280;4958;48.150;11.506;2024-02-26T00:02:21;93270.81;;;6.81;63.67
9839;BME280;4958;48.150;11.506;2024-02-26T00:04:54;93263.19;;;6.75;63.65
9839;BME280;4958;48.150;11.506;2024-02-26T00:07:31;93266.81;;;6.67;63.88
9839;BME280;4958;48.150;11.506;2024-02-26T00:10:10;93286.31;;;6.62;64.16
9839;BME280;4958;48.150;11.506;2024-02-26T00:12:37;93286.53;;;6.60;64.14
9839;BME280;4958;48.150;11.506;2024-02-26T00:15:41;93287.47;;;6.66;63.97
9839;BME280;4958;48.150;11.506;2024-02-26T00:18:21;93271.34;;;6.65;63.74
9839;BME280;4958;48.150;11.506;2024-02-26T00:21:21;93268.59;;;6.67;63.44
9839;BME280;4958;48.150;11.506;2024-02-26T00:24:25;93277.03;;;6.67;63.61
9839;BME280;4958;48.150;11.506;2024-02-26T00:27:26;93250.78;;;6.78;62.83
9839;BME280;4958;48.150;11.506;2024-02-26T00:30:10;93240.66;;;6.65;63.18
9839;BME280;4958;48.150;11.506;2024-02-26T00:32:57;93242.03;;;6.68;63.21
9839;BME280;4958;48.150;11.506;2024-02-26T00:35:35;93238.16;;;6.58;62.99
9839;BME280;4958;48.150;11.506;2024-02-26T00:38:14;93232.25;;;6.58;63.23
9839;BME280;4958;48.150;11.506;2024-02-26T00:40:52;93229.09;;;6.63;62.74
9839;BME280;4958;48.150;11.506;2024-02-26T00:43:32;93222.34;;;6.68;62.91
9839;BME280;4958;48.150;11.506;2024-02-26T00:46:24;93194.59;;;6.72;62.29
9839;BME280;4958;48.150;11.506;2024-02-26T00:49:00;93189.97;;;6.62;62.13
9839;BME280;4958;48.150;11.506;2024-02-26T00:51:53;93187.69;;;6.54;62.40
9839;BME280;4958;48.150;11.506;2024-02-26T00:54:33;93192.53;;;6.37;62.91
9839;BME280;4958;48.150;11.506;2024-02-26T00:57:22;93210.69;;;6.29;63.36
9839;BME280;4958;48.150;11.506;2024-02-26T01:02:58;93225.06;;;6.23;63.12
9839;BME280;4958;48.150;11.506;2024-02-26T01:08:16;93219.19;;;6.23;63.42
9839;BME280;4958;48.150;11.506;2024-02-26T01:11:06;93234.13;;;6.19;63.29
9839;BME280;4958;48.150;11.506;2024-02-26T01:14:00;93230.00;;;6.18;63.46
9839;BME280;4958;48.150;11.506;2024-02-26T01:16:36;93241.38;;;6.22;63.25
9839;BME280;4958;48.150;11.506;2024-02-26T01:19:41;93238.63;;;6.24;63.43
9839;BME280;4958;48.150;11.506;2024-02-26T01:22:52;93230.84;;;6.12;63.30
9839;BME280;4958;48.150;11.506;2024-02-26T01:25:59;93232.72;;;6.23;63.33
9839;BME280;4958;48.150;11.506;2024-02-26T01:29:08;93217.50;;;6.35;63.26
9839;BME280;4958;48.150;11.506;2024-02-26T01:31:57;93199.16;;;6.20;62.78
9839;BME280;4958;48.150;11.506;2024-02-26T01:34:47;93211.84;;;6.33;62.69
9839;BME280;4958;48.150;11.506;2024-02-26T01:37:30;93207.66;;;6.39;62.51
9839;BME280;4958;48.150;11.506;2024-02-26T01:40:16;93196.25;;;6.41;62.41
9839;BME280;4958;48.150;11.506;2024-02-26T01:42:56;93173.81;;;6.43;62.32
9839;BME280;4958;48.150;11.506;2024-02-26T01:45:35;93178.72;;;6.45;62.08
9839;BME280;4958;48.150;11.506;2024-02-26T01:51:54;93198.94;;;6.21;62.84
9839;BME280;4958;48.150;11.506;2024-02-26T01:54:42;93194.63;;;6.22;62.67
9839;BME280;4958;48.150;11.506;2024-02-26T02:00:33;93206.56;;;6.28;63.02
9839;BME280;4958;48.150;11.506;2024-02-26T02:03:40;93225.34;;;6.15;63.47
9839;BME280;4958;48.150;11.506;2024-02-26T02:09:37;93216.34;;;6.06;63.66
9839;BME280;4958;48.150;11.506;2024-02-26T02:12:37;93203.19;;;6.09;63.18
9839;BME280;4958;48.150;11.506;2024-02-26T02:15:43;93209.84;;;6.10;63.53
9839;BME280;4958;48.150;11.506;2024-02-26T02:22:27;93209.31;;;6.02;63.50
9839;BME280;4958;48.150;11.506;2024-02-26T02:28:40;93214.22;;;6.03;63.62
9839;BME280;4958;48.150;11.506;2024-02-26T02:35:28;93219.53;;;6.02;63.76
9839;BME280;4958;48.150;11.506;2024-02-26T03:05:48;93164.34;;;6.26;62.45
9839;BME280;4958;48.150;11.506;2024-02-26T03:09:05;93146.91;;;6.16;62.07
9839;BME280;4958;48.150;11.506;2024-02-26T03:12:12;93143.19;;;5.94;62.50
9839;BME280;4958;48.150;11.506;2024-02-26T03:50:03;93180.50;;;5.95;63.14
9839;BME280;4958;48.150;11.506;2024-02-26T04:03:30;93196.22;;;5.85;63.35
9839;BME280;4958;48.150;11.506;2024-02-26T04:17:30;93180.59;;;5.75;63.08
9839;BME280;4958;48.150;11.506;2024-02-26T04:26:16;93163.88;;;6.10;62.42
9839;BME280;4958;48.150;11.506;2024-02-26T04:29:31;93129.41;;;6.19;61.78
9839;BME280;4958;48.150;11.506;2024-02-26T04:36:28;93127.34;;;6.10;62.02
9839;BME280;4958;48.150;11.506;2024-02-26T04:39:24;93149.84;;;5.95;62.53
9839;BME280;4958;48.150;11.506;2024-02-26T04:46:02;93179.59;;;5.76;62.93
9839;BME280;4958;48.150;11.506;2024-02-26T04:49:39;93215.78;;;5.66;63.35
9839;BME280;4958;48.150;11.506;2024-02-26T04:52:59;93202.00;;;5.74;62.84
9839;BME280;4958;48.150;11.506;2024-02-26T04:56:07;93198.50;;;5.68;63.15
9839;BME280;4958;48.150;11.506;2024-02-26T05:06:03;93184.69;;;6.14;62.41
9839;BME280;4958;48.150;11.506;2024-02-26T05:15:50;93109.72;;;6.45;61.24
9839;BME280;4958;48.150;11.506;2024-02-26T05:25:43;93031.91;;;6.41;59.73
9839;BME280;4958;48.150;11.506;2024-02-26T05:28:39;93012.75;;;6.32;59.49
9839;BME280;4958;48.150;11.506;2024-02-26T05:31:46;93026.75;;;6.29;60.04
9839;BME280;4958;48.150;11.506;2024-02-26T05:42:04;93084.88;;;6.52;60.50
9839;BME280;4958;48.150;11.506;2024-02-26T05:47:43;93036.09;;;6.35;59.64
9839;BME280;4958;48.150;11.506;2024-02-26T05:50:50;93073.41;;;6.36;60.56
9839;BME280;4958;48.150;11.506;2024-02-26T06:13:44;93074.75;;;6.75;59.64
9839;BME280;4958;48.150;11.506;2024-02-26T06:16:35;93094.44;;;6.75;59.89
9839;BME280;4958;48.150;11.506;2024-02-26T06:19:17;93117.97;;;6.83;60.30
9839;BME280;4958;48.150;11.506;2024-02-26T06:21:52;93139.13;;;6.90;60.48
9839;BME280;4958;48.150;11.506;2024-02-26T06:24:37;93119.72;;;7.01;60.14
9839;BME280;4958;48.150;11.506;2024-02-26T06:27:35;93123.56;;;7.10;59.73
9839;BME280;4958;48.150;11.506;2024-02-26T06:30:20;93098.41;;;7.07;59.19
9839;BME280;4958;48.150;11.506;2024-02-26T06:49:02;93049.19;;;7.88;57.76
9839;BME280;4958;48.150;11.506;2024-02-26T06:51:51;93187.03;;;7.80;60.14
9839;BME280;4958;48.150;11.506;2024-02-26T07:28:49;93286.56;;;7.76;61.68
9839;BME280;4958;48.150;11.506;2024-02-26T07:46:51;93232.88;;;8.41;60.14
9839;BME280;4958;48.150;11.506;2024-02-26T07:52:46;93238.50;;;8.31;60.36
9839;BME280;4958;48.150;11.506;2024-02-26T08:02:23;93214.28;;;8.04;59.75
9839;BME280;4958;48.150;11.506;2024-02-26T08:05:20;93229.53;;;7.99;60.20
9839;BME280;4958;48.150;11.506;2024-02-26T08:08:30;93236.91;;;8.07;60.16
9839;BME280;4958;48.150;11.506;2024-02-26T08:14:57;93199.72;;;8.28;59.56
9839;BME280;4958;48.150;11.506;2024-02-26T08:36:49;93145.56;;;8.94;58.15
9839;BME280;4958;48.150;11.506;2024-02-26T08:39:33;93212.94;;;8.90;59.24
9839;BME280;4958;48.150;11.506;2024-02-26T08:45:24;93246.28;;;9.13;59.54
9839;BME280;4958;48.150;11.506;2024-02-26T08:47:52;93247.84;;;9.26;59.32
9839;BME280;4958;48.150;11.506;2024-02-26T08:50:19;93237.00;;;9.35;59.26
9839;BME280;4958;48.150;11.506;2024-02-26T08:52:47;93226.63;;;9.42;59.04
9839;BME280;4958;48.150;11.506;2024-02-26T08:55:21;93218.75;;;9.49;58.59
9839;BME280;4958;48.150;11.506;2024-02-26T08:57:51;93199.31;;;9.53;58.43
9839;BME280;4958;48.150;11.506;2024-02-26T09:00:38;93203.47;;;9.54;58.62
9839;BME280;4958;48.150;11.506;2024-02-26T09:03:11;93216.84;;;9.56;58.52
9839;BME280;4958;48.150;11.506;2024-02-26T09:06:49;93225.13;;;9.58;58.80
9839;BME280;4958;48.150;11.506;2024-02-26T09:27:03;93091.72;;;10.01;56.67
9839;BME280;4958;48.150;11.506;2024-02-26T09:33:30;93020.28;;;10.20;55.27
9839;BME280;4958;48.150;11.506;2024-02-26T09:36:33;92953.91;;;10.34;54.16
9839;BME280;4958;48.150;11.506;2024-02-26T09:42:45;92907.06;;;10.54;53.47
9839;BME280;4958;48.150;11.506;2024-02-26T09:45:25;92921.28;;;10.88;53.37
9839;BME280;4958;48.150;11.506;2024-02-26T09:48:12;92902.28;;;11.26;52.90
9839;BME280;4958;48.150;11.506;2024-02-26T09:54:35;92827.00;;;11.51;51.98
9839;BME280;4958;48.150;11.506;2024-02-26T09:57:46;92734.44;;;11.39;50.36
9839;BME280;4958;48.150;11.506;2024-02-26T10:00:51;92703.41;;;11.09;50.13
9839;BME280;4958;48.150;11.506;2024-02-26T10:03:53;92736.34;;;11.07;50.67
9839;BME280;4958;48.150;11.506;2024-02-26T10:06:47;92738.94;;;11.12;50.37
9839;BME280;4958;48.150;11.506;2024-02-26T10:19:03;92653.41;;;11.00;49.22
9839;BME280;4958;48.150;11.506;2024-02-26T10:21:34;92683.09;;;11.18;49.74
9839;BME280;4958;48.150;11.506;2024-02-26T10:24:15;92681.41;;;11.43;49.03
9839;BME280;4958;48.150;11.506;2024-02-26T10:26:46;92684.00;;;11.59;49.40
9839;BME280;4958;48.150;11.506;2024-02-26T10:29:15;92688.41;;;11.53;49.22
9839;BME280;4958;48.150;11.506;2024-02-26T10:31:42;92699.25;;;11.65;49.57
9839;BME280;4958;48.150;11.506;2024-02-26T10:34:09;92730.25;;;11.86;50.14
9839;BME280;4958;48.150;11.506;2024-02-26T10:36:39;92681.78;;;11.77;49.45
9839;BME280;4958;48.150;11.506;2024-02-26T10:39:08;92668.91;;;11.83;49.38
9839;BME280;4958;48.150;11.506;2024-02-26T10:41:35;92661.91;;;11.73;49.04
9839;BME280;4958;48.150;11.506;2024-02-26T10:44:06;92653.38;;;11.67;49.03
9839;BME280;4958;48.150;11.506;2024-02-26T10:46:38;92603.88;;;11.50;48.07
9839;BME280;4958;48.150;11.506;2024-02-26T10:49:04;92570.38;;;11.45;47.55
9839;BME280;4958;48.150;11.506;2024-02-26T10:51:37;92559.03;;;11.41;47.34
9839;BME280;4958;48.150;11.506;2024-02-26T10:54:06;92552.63;;;11.49;47.42
9839;BME280;4958;48.150;11.506;2024-02-26T10:56:36;92575.53;;;11.60;47.64
9839;BME280;4958;48.150;11.506;2024-02-26T10:59:07;92551.84;;;11.63;47.05
9839;BME280;4958;48.150;11.506;2024-02-26T11:01:56;92571.22;;;11.81;47.45
9839;BME280;4958;48.150;11.506;2024-02-26T11:05:18;92585.41;;;12.09;47.15
9839;BME280;4958;48.150;11.506;2024-02-26T11:16:04;92419.47;;;12.88;43.84
9839;BME280;4958;48.150;11.506;2024-02-26T11:21:46;92377.56;;;13.01;42.97
9839;BME280;4958;48.150;11.506;2024-02-26T11:24:35;92423.97;;;13.11;43.81
9839;BME280;4958;48.150;11.506;2024-02-26T11:27:24;92400.19;;;13.20;43.36
9839;BME280;4958;48.150;11.506;2024-02-26T11:30:28;92343.72;;;13.03;42.18
9839;BME280;4958;48.150;11.506;2024-02-26T12:07:47;92248.16;;;14.36;40.48
9839;BME280;4958;48.150;11.506;2024-02-26T12:10:35;92299.75;;;14.83;41.02
9839;BME280;4958;48.150;11.506;2024-02-26T12:13:29;92300.00;;;15.33;40.72
9839;BME280;4958;48.150;11.506;2024-02-26T12:16:21;92270.19;;;15.77;40.44
9839;BME280;4958;48.150;11.506;2024-02-26T12:19:22;92126.63;;;15.81;38.37
9839;BME280;4958;48.150;11.506;2024-02-26T12:26:07;92226.16;;;15.85;39.94
9839;BME280;4958;48.150;11.506;2024-02-26T12:33:03;92203.06;;;16.11;38.66
9839;BME280;4958;48.150;11.506;2024-02-26T12:36:20;92200.28;;;16.08;38.80
9839;BME280;4958;48.150;11.506;2024-02-26T12:43:09;92134.97;;;15.92;38.25
9839;BME280;4958;48.150;11.506;2024-02-26T12:46:23;92097.16;;;15.28;37.77
9839;BME280;4958;48.150;11.506;2024-02-26T12:49:00;92160.13;;;15.14;38.55
9839;BME280;4958;48.150;11.506;2024-02-26T12:51:31;92232.00;;;15.09;39.61
9839;BME280;4958;48.150;11.506;2024-02-26T12:54:12;92253.06;;;15.48;39.48
9839;BME280;4958;48.150;11.506;2024-02-26T12:58:03;92278.81;;;15.86;39.42
9839;BME280;4958;48.150;11.506;2024-02-26T13:00:07;92283.09;;;16.18;39.37
9839;BME280;4958;48.150;11.506;2024-02-26T13:02:45;92240.53;;;16.05;39.03
9839;BME280;4958;48.150;11.506;2024-02-26T13:05:28;92185.50;;;15.95;38.35
9839;BME280;4958;48.150;11.506;2024-02-26T13:10:44;92208.84;;;16.31;38.40
9839;BME280;4958;48.150;11.506;2024-02-26T13:13:29;92201.06;;;16.31;38.22
9839;BME280;4958;48.150;11.506;2024-02-26T13:20:11;92108.88;;;16.64;36.84
9839;BME280;4958;48.150;11.506;2024-02-26T13:30:30;92182.72;;;16.27;37.91
9839;BME280;4958;48.150;11.506;2024-02-26T13:33:37;92150.63;;;16.23;37.67
9839;BME280;4958;48.150;11.506;2024-02-26T13:36:57;92156.56;;;16.23;37.50
9839;BME280;4958;48.150;11.506;2024-02-26T13:39:51;92149.06;;;16.22;37.45
9839;BME280;4958;48.150;11.506;2024-02-26T13:42:22;92160.19;;;16.14;38.00
9839;BME280;4958;48.150;11.506;2024-02-26T13:45:19;92145.31;;;16.06;37.45
9839;BME280;4958;48.150;11.506;2024-02-26T13:55:21;92185.66;;;15.07;38.68
9839;BME280;4958;48.150;11.506;2024-02-26T14:38:06;92393.00;;;13.45;41.20
9839;BME280;4958;48.150;11.506;2024-02-26T14:40:39;92430.28;;;13.34;41.44
9839;BME280;4958;48.150;11.506;2024-02-26T14:43:12;92452.72;;;13.39;41.95
9839;BME280;4958;48.150;11.506;2024-02-26T14:45:55;92469.50;;;13.41;41.94
9839;BME280;4958;48.150;11.506;2024-02-26T14:48:25;92512.19;;;13.34;42.94
9839;BME280;4958;48.150;11.506;2024-02-26T14:51:13;92537.84;;;13.20;43.13
9839;BME280;4958;48.150;11.506;2024-02-26T14:54:10;92634.75;;;13.07;44.67
9839;BME280;4958;48.150;11.506;2024-02-26T14:56:48;92665.44;;;13.09;44.76
9839;BME280;4958;48.150;11.506;2024-02-26T14:59:24;92675.03;;;12.98;45.07
9839;BME280;4958;48.150;11.506;2024-02-26T15:01:51;92683.06;;;12.97;45.27
9839;BME280;4958;48.150;11.506;2024-02-26T15:04:17;92697.25;;;12.94;45.43
9839;BME280;4958;48.150;11.506;2024-02-26T15:06:51;92715.06;;;13.01;45.54
9839;BME280;4958;48.150;11.506;2024-02-26T15:09:22;92746.06;;;13.06;45.69
9839;BME280;4958;48.150;11.506;2024-02-26T15:12:05;92773.19;;;13.03;46.22
9839;BME280;4958;48.150;11.506;2024-02-26T15:14:49;92825.63;;;12.89;47.31
9839;BME280;4958;48.150;11.506;2024-02-26T15:17:51;92841.34;;;12.87;47.32
9839;BME280;4958;48.150;11.506;2024-02-26T15:20:30;92863.28;;;12.90;47.59
9839;BME280;4958;48.150;11.506;2024-02-26T15:23:04;92884.72;;;12.90;47.65
9839;BME280;4958;48.150;11.506;2024-02-26T15:25:41;92899.72;;;12.88;47.91
9839;BME280;4958;48.150;11.506;2024-02-26T15:31:12;92912.88;;;12.87;48.20
9839;BME280;4958;48.150;11.506;2024-02-26T15:33:57;92958.56;;;12.81;48.78
9839;BME280;4958;48.150;11.506;2024-02-26T15:37:03;92987.44;;;12.68;49.69
9839;BME280;4958;48.150;11.506;2024-02-26T15:39:32;93005.47;;;12.63;49.60
9839;BME280;4958;48.150;11.506;2024-02-26T15:45:46;92981.41;;;12.52;49.43
9839;BME280;4958;48.150;11.506;2024-02-26T15:55:10;92998.47;;;12.58;49.18
9839;BME280;4958;48.150;11.506;2024-02-26T16:01:30;92964.69;;;12.60;48.80
9839;BME280;4958;48.150;11.506;2024-02-26T16:08:30;92953.81;;;12.53;48.56
9839;BME280;4958;48.150;11.506;2024-02-26T16:11:38;92949.97;;;12.50;48.72
9839;BME280;4958;48.150;11.506;2024-02-26T16:28:08;92948.59;;;12.37;48.75
9839;BME280;4958;48.150;11.506;2024-02-26T16:31:20;92954.50;;;12.33;49.10
9839;BME280;4958;48.150;11.506;2024-02-26T16:34:16;92963.53;;;12.35;49.17
9839;BME280;4958;48.150;11.506;2024-02-26T16:36:56;92986.47;;;12.27;49.49
9839;BME280;4958;48.150;11.506;2024-02-26T16:39:45;92989.25;;;12.15;49.75
9839;BME280;4958;48.150;11.506;2024-02-26T17:00:04;93124.84;;;12.06;52.03
9839;BME280;4958;48.150;11.506;2024-02-26T17:06:33;93174.06;;;11.77;52.50
9839;BME280;4958;48.150;11.506;2024-02-26T17:11:04;93192.16;;;11.83;52.88
9839;BME280;4958;48.150;11.506;2024-02-26T17:20:07;93223.16;;;11.88;53.28
9839;BME280;4958;48.150;11.506;2024-02-26T17:22:53;93238.75;;;11.76;53.68
9839;BME280;4958;48.150;11.506;2024-02-26T17:25:36;93235.47;;;11.81;53.62
9839;BME280;4958;48.150;11.506;2024-02-26T17:28:50;93241.69;;;11.85;53.32
9839;BME280;4958;48.150;11.506;2024-02-26T17:31:45;93257.94;;;11.85;53.64
9839;BME280;4958;48.150;11.506;2024-02-26T17:38:10;93274.78;;;11.93;53.65
9839;BME280;4958;48.150;11.506;2024-02-26T17:41:14;93279.41;;;11.91;53.73
9839;BME280;4958;48.150;11.506;2024-02-26T17:50:19;93292.94;;;11.81;53.54
9839;BME280;4958;48.150;11.506;2024-02-26T18:00:04;93327.78;;;11.84;54.13
9839;BME280;4958;48.150;11.506;2024-02-26T18:02:01;93343.19;;;11.79;54.28
9839;BME280;4958;48.150;11.506;2024-02-26T18:05:10;93358.81;;;11.72;55.00
9839;BME280;4958;48.150;11.506;2024-02-26T18:07:53;93364.34;;;11.64;54.75
9839;BME280;4958;48.150;11.506;2024-02-26T18:17:02;93386.16;;;11.73;54.99
9839;BME280;4958;48.150;11.506;2024-02-26T18:19:51;93388.41;;;11.69;55.13
9839;BME280;4958;48.150;11.506;2024-02-26T18:25:44;93428.66;;;11.54;55.44
9839;BME280;4958;48.150;11.506;2024-02-26T18:28:45;93443.38;;;11.58;55.69
9839;BME280;4958;48.150;11.506;2024-02-26T18:31:39;93455.97;;;11.55;56.25
9839;BME280;4958;48.150;11.506;2024-02-26T18:34:30;93461.38;;;11.53;56.09
9839;BME280;4958;48.150;11.506;2024-02-26T18:37:30;93454.94;;;11.56;56.04
9839;BME280;4958;48.150;11.506;2024-02-26T18:40:16;93471.41;;;11.55;56.32
9839;BME280;4958;48.150;11.506;2024-02-26T18:43:11;93475.03;;;11.54;56.34
9839;BME280;4958;48.150;11.506;2024-02-26T18:46:10;93488.94;;;11.53;56.37
9839;BME280;4958;48.150;11.506;2024-02-26T18:49:36;93489.31;;;11.45;56.41
9839;BME280;4958;48.150;11.506;2024-02-26T18:55:23;93497.50;;;11.41;56.69
9839;BME280;4958;48.150;11.506;2024-02-26T18:59:58;93503.03;;;11.33;56.97
9839;BME280;4958;48.150;11.506;2024-02-26T19:02:33;93483.50;;;11.37;56.70
9839;BME280;4958;48.150;11.506;2024-02-26T19:12:37;93486.16;;;11.26;56.80
9839;BME280;4958;48.150;11.506;2024-02-26T19:16:02;93487.63;;;11.22;56.84
9839;BME280;4958;48.150;11.506;2024-02-26T19:21:26;93508.78;;;11.24;56.60
9839;BME280;4958;48.150;11.506;2024-02-26T19:27:52;93530.31;;;11.18;57.25
9839;BME280;4958;48.150;11.506;2024-02-26T19:30:50;93556.22;;;11.11;57.40
9839;BME280;4958;48.150;11.506;2024-02-26T19:33:44;93550.13;;;11.17;57.20
9839;BME280;4958;48.150;11.506;2024-02-26T19:36:25;93562.53;;;11.20;57.50
9839;BME280;4958;48.150;11.506;2024-02-26T19:38:55;93587.13;;;11.11;57.74
9839;BME280;4958;48.150;11.506;2024-02-26T19:41:21;93580.53;;;11.03;58.00
9839;BME280;4958;48.150;11.506;2024-02-26T19:43:49;93586.00;;;11.07;57.81
9839;BME280;4958;48.150;11.506;2024-02-26T19:46:16;93573.78;;;11.14;57.60
9839;BME280;4958;48.150;11.506;2024-02-26T19:48:44;93598.88;;;11.07;57.95
9839;BME280;4958;48.150;11.506;2024-02-26T19:51:15;93606.81;;;11.05;57.99
9839;BME280;4958;48.150;11.506;2024-02-26T19:53:41;93630.22;;;11.04;58.39
9839;BME280;4958;48.150;11.506;2024-02-26T19:56:08;93636.38;;;11.03;58.41
9839;BME280;4958;48.150;11.506;2024-02-26T19:58:35;93642.53;;;11.02;58.49
9839;BME280;4958;48.150;11.506;2024-02-26T20:01:03;93641.75;;;11.01;58.35
9839;BME280;4958;48.150;11.506;2024-02-26T20:03:35;93643.00;;;10.99;58.51
9839;BME280;4958;48.150;11.506;2024-02-26T20:06:02;93650.41;;;10.95;58.25
9839;BME280;4958;48.150;11.506;2024-02-26T20:08:30;93663.59;;;10.87;58.55
9839;BME280;4958;48.150;11.506;2024-02-26T20:10:56;93664.72;;;10.91;58.53
9839;BME280;4958;48.150;11.506;2024-02-26T20:13:23;93675.91;;;10.85;58.99
9839;BME280;4958;48.150;11.506;2024-02-26T20:15:52;93682.75;;;10.80;59.22
9839;BME280;4958;48.150;11.506;2024-02-26T20:18:20;93685.09;;;10.81;59.28
9839;BME280;4958;48.150;11.506;2024-02-26T20:20:49;93673.34;;;10.85;59.18
9839;BME280;4958;48.150;11.506;2024-02-26T20:23:18;93676.72;;;10.86;58.91
9839;BME280;4958;48.150;11.506;2024-02-26T20:25:45;93678.50;;;10.85;59.11
9839;BME280;4958;48.150;11.506;2024-02-26T20:28:11;93682.84;;;10.85;58.98
9839;BME280;4958;48.150;11.506;2024-02-26T20:30:37;93693.50;;;10.77;59.57
9839;BME280;4958;48.150;11.506;2024-02-26T20:33:04;93689.69;;;10.79;59.10
9839;BME280;4958;48.150;11.506;2024-02-26T20:35:32;93682.19;;;10.78;59.52
9839;BME280;4958;48.150;11.506;2024-02-26T20:38:00;93680.63;;;10.77;59.55
9839;BME280;4958;48.150;11.506;2024-02-26T20:40:27;93695.06;;;10.78;59.51
9839;BME280;4958;48.150;11.506;2024-02-26T20:42:53;93714.53;;;10.73;59.87
9839;BME280;4958;48.150;11.506;2024-02-26T20:45:20;93711.97;;;10.73;59.74
9839;BME280;4958;48.150;11.506;2024-02-26T20:47:46;93710.72;;;10.64;59.76
9839;BME280;4958;48.150;11.506;2024-02-26T20:50:14;93715.53;;;10.61;59.62
9839;BME280;4958;48.150;11.506;2024-02-26T20:52:44;93713.50;;;10.63;59.48
9839;BME280;4958;48.150;11.506;2024-02-26T20:55:11;93725.72;;;10.56;59.79
9839;BME280;4958;48.150;11.506;2024-02-26T20:57:39;93733.97;;;10.46;60.01
9839;BME280;4958;48.150;11.506;2024-02-26T21:00:06;93725.47;;;10.46;59.97
9839;BME280;4958;48.150;11.506;2024-02-26T21:02:37;93736.97;;;10.43;60.16
9839;BME280;4958;48.150;11.506;2024-02-26T21:05:08;93725.00;;;10.37;59.64
9839;BME280;4958;48.150;11.506;2024-02-26T21:07:37;93729.38;;;10.36;59.90
9839;BME280;4958;48.150;11.506;2024-02-26T21:10:07;93726.34;;;10.39;59.68
9839;BME280;4958;48.150;11.506;2024-02-26T21:12:39;93731.25;;;10.41;59.79
9839;BME280;4958;48.150;11.506;2024-02-26T21:15:16;93728.16;;;10.39;59.89
9839;BME280;4958;48.150;11.506;2024-02-26T21:17:46;93734.94;;;10.33;59.60
9839;BME280;4958;48.150;11.506;2024-02-26T21:37:52;93725.13;;;10.12;59.65
9839;BME280;4958;48.150;11.506;2024-02-26T21:40:48;93715.81;;;9.99;59.82
9839;BME280;4958;48.150;11.506;2024-02-26T21:43:55;93709.09;;;9.98;59.55
9839;BME280;4958;48.150;11.506;2024-02-26T21:49:58;93710.78;;;10.04;59.21
9839;BME280;4958;48.150;11.506;2024-02-26T22:03:23;93741.78;;;9.80;59.60
9839;BME280;4958;48.150;11.506;2024-02-26T22:10:23;93744.41;;;9.73;59.31
9839;BME280;4958;48.150;11.506;2024-02-26T22:30:28;93825.91;;;9.66;60.41
9839;BME280;4958;48.150;11.506;2024-02-26T22:33:52;93844.00;;;9.59;60.46
9839;BME280;4958;48.150;11.506;2024-02-26T22:56:04;93885.69;;;9.61;61.12
9839;BME280;4958;48.150;11.506;2024-02-26T23:11:49;93988.81;;;9.33;62.37
9839;BME280;4958;48.150;11.506;2024-02-26T23:20:05;93988.16;;;9.45;62.49
9839;BME280;4958;48.150;11.506;2024-02-26T23:20:32;93983.59;;;9.47;62.57
9839;BME280;4958;48.150;11.506;2024-02-26T23:30:19;93996.03;;;9.50;62.40
9839;BME280;4958;48.150;11.506;2024-02-26T23:33:30;94001.16;;;9.50;62.27
9839;BME280;4958;48.150;11.506;2024-02-26T23:36:55;93989.69;;;9.52;62.53
9839;BME280;4958;48.150;11.506;2024-02-26T23:43:19;94007.75;;;9.39;62.62
9839;BME280;4958;48.150;11.506;2024-02-26T23:46:37;94012.13;;;9.39;62.77
9839;BME280;4958;48.150;11.506;2024-02-26T23:49:45;94029.69;;;9.42;62.77
9839;BME280;4958;48.150;11.506;2024-02-26T23:52:41;94038.78;;;9.38;63.05
